createdAt,value
2023-01-30T00:01:44.691Z,44.63
2023-01-30T00:04:12.529Z,44.03
2023-01-30T00:06:41.006Z,41.07
2023-01-30T00:09:10.583Z,40.90
2023-01-30T00:11:37.284Z,43.10
2023-01-30T00:14:04.158Z,45.03
2023-01-30T00:16:31.069Z,39.37
2023-01-30T00:18:57.891Z,42.50
2023-01-30T00:21:24.635Z,42.53
2023-01-30T00:23:51.550Z,42.23
2023-01-30T00:26:18.385Z,34.27
2023-01-30T00:28:45.488Z,42.03
2023-01-30T00:31:12.496Z,44.23
2023-01-30T00:33:39.664Z,44.77
2023-01-30T00:36:07.150Z,40.77
2023-01-30T00:38:34.131Z,43.20
2023-01-30T00:41:01.104Z,44.17
2023-01-30T00:43:46.746Z,47.53
2023-01-30T00:46:48.297Z,41.60
2023-01-30T00:49:15.689Z,47.00
2023-01-30T00:51:42.467Z,43.10
2023-01-30T00:54:09.239Z,43.03
2023-01-30T00:56:36.289Z,43.17
2023-01-30T00:59:03.193Z,45.40
2023-01-30T01:01:30.179Z,44.30
2023-01-30T01:03:57.119Z,46.53
2023-01-30T01:06:23.892Z,44.93
2023-01-30T01:08:50.952Z,47.20
2023-01-30T01:11:24.443Z,43.20
2023-01-30T01:13:56.163Z,44.93
2023-01-30T01:16:23.524Z,48.13
2023-01-30T01:18:51.467Z,52.10
2023-01-30T01:21:20.305Z,46.37
2023-01-30T01:23:56.375Z,49.97
2023-01-30T01:26:23.438Z,53.60
2023-01-30T01:28:53.941Z,47.13
2023-01-30T01:31:20.969Z,51.17
2023-01-30T01:33:47.866Z,58.13
2023-01-30T01:36:29.311Z,53.63
2023-01-30T01:39:01.875Z,55.13
2023-01-30T01:41:28.696Z,56.20
2023-01-30T01:44:09.154Z,46.13
2023-01-30T01:46:50.400Z,49.60
2023-01-30T01:49:27.852Z,46.47
2023-01-30T01:52:06.012Z,51.13
2023-01-30T01:54:45.525Z,60.00
2023-01-30T01:57:23.422Z,55.17
2023-01-30T01:59:55.293Z,59.43
2023-01-30T02:02:22.403Z,54.03
2023-01-30T02:05:05.134Z,67.47
2023-01-30T02:07:41.105Z,58.43
2023-01-30T02:10:10.838Z,59.57
2023-01-30T02:12:39.273Z,53.70
2023-01-30T02:15:06.883Z,64.03
2023-01-30T02:17:33.803Z,56.77
2023-01-30T02:20:20.808Z,62.87
2023-01-30T02:23:17.178Z,55.93
2023-01-30T02:26:12.334Z,61.47
2023-01-30T02:28:41.883Z,66.67
2023-01-30T02:31:26.449Z,63.57
2023-01-30T02:34:28.601Z,54.23
2023-01-30T02:37:28.809Z,67.70
2023-01-30T02:40:12.979Z,52.27
2023-01-30T02:42:51.892Z,62.20
2023-01-30T02:45:40.256Z,55.03
2023-01-30T02:48:11.145Z,60.33
2023-01-30T02:50:43.715Z,47.23
2023-01-30T02:53:10.677Z,56.23
2023-01-30T02:55:42.282Z,55.30
2023-01-30T02:58:10.694Z,45.27
2023-01-30T03:01:07.473Z,49.07
2023-01-30T03:03:52.972Z,55.37
2023-01-30T03:06:31.957Z,50.67
2023-01-30T03:09:15.753Z,55.63
2023-01-30T03:12:17.938Z,58.60
2023-01-30T03:14:49.958Z,48.70
2023-01-30T03:17:20.999Z,57.10
2023-01-30T03:19:47.834Z,58.03
2023-01-30T03:22:14.727Z,57.83
2023-01-30T03:24:43.090Z,51.53
2023-01-30T03:27:12.933Z,48.67
2023-01-30T03:29:40.467Z,55.47
2023-01-30T03:32:07.588Z,49.57
2023-01-30T03:34:34.440Z,48.53
2023-01-30T03:37:01.407Z,51.47
2023-01-30T03:39:28.325Z,51.60
2023-01-30T03:41:55.361Z,46.47
2023-01-30T03:44:22.154Z,52.33
2023-01-30T03:46:49.144Z,55.30
2023-01-30T03:49:16.079Z,44.73
2023-01-30T03:51:42.819Z,47.80
2023-01-30T03:54:09.664Z,46.13
2023-01-30T03:56:36.406Z,55.77
2023-01-30T03:59:04.054Z,50.13
2023-01-30T04:01:31.172Z,48.57
2023-01-30T04:03:58.213Z,46.87
2023-01-30T04:06:24.994Z,48.60
2023-01-30T04:08:54.959Z,52.87
2023-01-30T04:11:21.988Z,54.10
2023-01-30T04:13:48.791Z,47.83
2023-01-30T04:16:18.434Z,51.73
2023-01-30T04:18:45.443Z,44.47
2023-01-30T04:21:13.157Z,48.37
2023-01-30T04:23:40.082Z,48.47
2023-01-30T04:26:08.136Z,51.40
2023-01-30T04:28:35.483Z,48.63
2023-01-30T04:31:02.865Z,56.63
2023-01-30T04:33:30.020Z,53.20
2023-01-30T04:36:01.318Z,49.27
2023-01-30T04:38:29.790Z,46.53
2023-01-30T04:40:57.590Z,42.67
2023-01-30T04:43:25.718Z,49.73
2023-01-30T04:45:53.000Z,52.07
2023-01-30T04:48:22.284Z,45.43
2023-01-30T04:50:53.812Z,49.63
2023-01-30T04:53:21.062Z,43.80
2023-01-30T04:55:48.711Z,37.50
2023-01-30T04:58:16.358Z,46.97
2023-01-30T05:00:43.216Z,54.10
2023-01-30T05:03:10.105Z,48.63
2023-01-30T05:05:37.083Z,52.50
2023-01-30T05:08:04.196Z,47.63
2023-01-30T05:10:31.317Z,47.97
2023-01-30T05:13:05.683Z,44.73
2023-01-30T05:15:33.266Z,47.43
2023-01-30T05:18:00.312Z,44.33
2023-01-30T05:20:27.163Z,43.33
2023-01-30T05:22:53.939Z,35.87
2023-01-30T05:25:21.408Z,38.47
2023-01-30T05:27:48.141Z,36.33
2023-01-30T05:30:15.073Z,38.80
2023-01-30T05:32:41.937Z,33.80
2023-01-30T05:35:09.149Z,34.77
2023-01-30T05:37:37.748Z,37.40
2023-01-30T05:40:05.113Z,32.67
2023-01-30T05:42:31.962Z,36.17
2023-01-30T05:44:58.703Z,30.13
2023-01-30T05:47:25.487Z,28.63
2023-01-30T05:49:52.238Z,31.40
2023-01-30T05:52:19.009Z,25.97
2023-01-30T05:54:45.895Z,22.63
2023-01-30T05:57:13.213Z,26.63
2023-01-30T05:59:40.014Z,27.97
2023-01-30T06:02:07.184Z,25.33
2023-01-30T06:04:34.334Z,21.93
2023-01-30T06:07:01.881Z,21.60
2023-01-30T06:09:28.656Z,19.57
2023-01-30T06:11:55.712Z,18.13
2023-01-30T06:14:22.548Z,18.40
2023-01-30T06:16:49.529Z,18.20
2023-01-30T06:19:16.543Z,21.53
2023-01-30T06:21:43.600Z,20.43
2023-01-30T06:24:10.326Z,19.23
2023-01-30T06:26:37.134Z,19.33
2023-01-30T06:29:03.950Z,19.93
2023-01-30T06:31:30.798Z,20.97
2023-01-30T06:33:57.581Z,18.00
2023-01-30T06:36:24.584Z,17.07
2023-01-30T06:38:51.321Z,17.90
2023-01-30T06:41:18.130Z,19.67
2023-01-30T06:43:45.008Z,18.17
2023-01-30T06:46:11.786Z,16.67
2023-01-30T06:48:38.595Z,18.20
2023-01-30T06:51:05.527Z,18.47
2023-01-30T06:53:32.333Z,19.40
2023-01-30T06:55:59.843Z,19.00
2023-01-30T06:58:26.948Z,20.63
2023-01-30T07:00:54.088Z,19.80
2023-01-30T07:03:20.920Z,19.27
2023-01-30T07:05:48.325Z,19.23
2023-01-30T07:08:16.625Z,20.27
2023-01-30T07:10:44.355Z,18.60
2023-01-30T07:13:11.366Z,16.63
2023-01-30T07:15:38.288Z,15.80
2023-01-30T07:18:05.211Z,15.83
2023-01-30T07:20:32.165Z,23.40
2023-01-30T07:22:59.298Z,16.33
2023-01-30T07:25:31.670Z,19.03
2023-01-30T07:28:02.597Z,19.60
2023-01-30T07:30:32.394Z,15.93
2023-01-30T07:33:00.599Z,16.27
2023-01-30T07:35:29.766Z,15.00
2023-01-30T07:37:57.085Z,13.27
2023-01-30T07:40:24.609Z,16.07
2023-01-30T07:43:14.630Z,17.40
2023-01-30T07:45:47.051Z,16.50
2023-01-30T07:48:16.873Z,14.93
2023-01-30T07:50:44.609Z,13.23
2023-01-30T07:53:13.759Z,12.00
2023-01-30T07:55:40.774Z,14.90
2023-01-30T07:58:07.687Z,16.97
2023-01-30T08:00:36.221Z,15.83
2023-01-30T08:03:03.130Z,18.30
2023-01-30T08:05:30.183Z,12.37
2023-01-30T08:07:57.577Z,15.30
2023-01-30T08:10:25.093Z,9.57
2023-01-30T08:12:52.269Z,11.83
2023-01-30T08:15:20.647Z,17.40
2023-01-30T08:17:56.119Z,16.20
2023-01-30T08:20:23.258Z,12.37
2023-01-30T08:22:50.150Z,10.20
2023-01-30T08:25:17.079Z,12.07
2023-01-30T08:27:43.971Z,15.67
2023-01-30T08:30:11.970Z,9.10
2023-01-30T08:32:38.887Z,9.57
2023-01-30T08:35:06.213Z,13.33
2023-01-30T08:37:33.028Z,8.33
2023-01-30T08:39:59.827Z,12.30
2023-01-30T08:42:26.795Z,9.80
2023-01-30T08:44:54.991Z,8.70
2023-01-30T08:47:21.849Z,13.77
2023-01-30T08:49:48.743Z,14.47
2023-01-30T08:52:15.737Z,10.40
2023-01-30T08:54:42.569Z,13.40
2023-01-30T08:57:09.690Z,9.07
2023-01-30T08:59:36.502Z,10.80
2023-01-30T09:02:03.393Z,8.83
2023-01-30T09:04:30.872Z,14.87
2023-01-30T09:06:57.775Z,12.70
2023-01-30T09:09:24.934Z,9.27
2023-01-30T09:11:52.098Z,13.53
2023-01-30T09:14:19.916Z,16.77
2023-01-30T09:16:48.384Z,10.23
2023-01-30T09:19:15.835Z,15.23
2023-01-30T09:21:43.003Z,14.57
2023-01-30T09:24:09.851Z,15.93
2023-01-30T09:26:36.956Z,10.27
2023-01-30T09:29:03.798Z,14.70
2023-01-30T09:31:31.131Z,12.57
2023-01-30T09:33:57.951Z,20.53
2023-01-30T09:36:24.786Z,16.47
2023-01-30T09:38:51.605Z,20.17
2023-01-30T09:41:32.048Z,17.63
2023-01-30T09:44:14.910Z,16.37
2023-01-30T09:46:47.781Z,14.10
2023-01-30T09:49:26.509Z,12.93
2023-01-30T09:52:12.650Z,17.47
2023-01-30T09:54:42.876Z,19.07
2023-01-30T09:57:25.679Z,20.27
2023-01-30T10:00:04.881Z,16.40
2023-01-30T10:02:51.103Z,14.33
2023-01-30T10:05:18.363Z,16.10
2023-01-30T10:07:51.531Z,12.87
2023-01-30T10:10:32.719Z,9.47
2023-01-30T10:13:25.339Z,18.80
2023-01-30T10:16:10.988Z,16.77
2023-01-30T10:19:08.328Z,10.57
2023-01-30T10:21:50.832Z,11.67
2023-01-30T10:24:54.894Z,16.63
2023-01-30T10:27:24.191Z,15.63
2023-01-30T10:29:59.122Z,19.87
2023-01-30T10:32:52.188Z,13.37
2023-01-30T10:35:31.051Z,15.83
2023-01-30T10:38:31.681Z,14.10
2023-01-30T10:41:21.199Z,11.33
2023-01-30T10:44:20.576Z,12.70
2023-01-30T10:46:56.898Z,18.07
2023-01-30T10:49:44.977Z,15.13
2023-01-30T10:52:21.479Z,18.80
2023-01-30T10:55:18.132Z,14.60
2023-01-30T10:57:53.493Z,16.57
2023-01-30T11:01:13.103Z,16.93
2023-01-30T11:03:51.938Z,14.83
2023-01-30T11:06:28.388Z,18.53
2023-01-30T11:08:57.978Z,22.33
2023-01-30T11:11:52.035Z,17.73
2023-01-30T11:14:19.258Z,12.73
2023-01-30T11:16:57.046Z,14.47
2023-01-30T11:19:31.088Z,15.67
2023-01-30T11:22:02.832Z,16.50
2023-01-30T11:24:41.560Z,12.20
2023-01-30T11:27:19.164Z,17.70
2023-01-30T11:29:47.865Z,17.97
2023-01-30T11:32:27.701Z,15.67
2023-01-30T11:35:15.156Z,12.77
2023-01-30T11:37:45.925Z,16.80
2023-01-30T11:40:19.341Z,17.10
2023-01-30T11:42:49.983Z,18.57
2023-01-30T11:45:20.011Z,16.77
2023-01-30T11:47:59.655Z,18.40
2023-01-30T11:51:32.236Z,13.57
2023-01-30T11:53:46.127Z,16.17
2023-01-30T11:56:27.504Z,10.53
2023-01-30T11:58:59.055Z,11.97
2023-01-30T12:01:35.686Z,13.53
2023-01-30T12:04:08.383Z,13.03
2023-01-30T12:06:38.542Z,16.07
2023-01-30T12:09:07.040Z,14.00
2023-01-30T12:11:36.596Z,18.60
2023-01-30T12:14:25.644Z,10.23
2023-01-30T12:17:14.404Z,17.90
2023-01-30T12:20:00.695Z,16.07
2023-01-30T12:22:46.096Z,16.33
2023-01-30T12:25:22.267Z,12.50
2023-01-30T12:27:49.139Z,18.00
2023-01-30T12:33:07.352Z,9.63
2023-01-30T12:35:57.803Z,15.00
2023-01-30T12:38:39.842Z,14.40
2023-01-30T12:41:20.027Z,24.60
2023-01-30T12:43:52.982Z,16.00
2023-01-30T12:46:38.596Z,13.97
2023-01-30T12:49:34.126Z,15.83
2023-01-30T12:52:30.254Z,15.40
2023-01-30T12:55:22.815Z,10.30
2023-01-30T12:58:00.190Z,11.57
2023-01-30T13:00:48.976Z,16.10
2023-01-30T13:03:33.123Z,7.87
2023-01-30T13:06:16.176Z,7.37
2023-01-30T13:09:04.782Z,12.13
2023-01-30T13:11:41.835Z,7.77
2023-01-30T13:14:11.503Z,9.87
2023-01-30T13:17:00.807Z,5.83
2023-01-30T13:19:55.053Z,5.33
2023-01-30T13:22:46.538Z,8.80
2023-01-30T13:25:38.589Z,4.97
2023-01-30T13:28:19.057Z,9.13
2023-01-30T13:30:49.646Z,12.83
2023-01-30T13:33:22.449Z,14.30
2023-01-30T13:36:12.661Z,11.67
2023-01-30T13:38:49.391Z,12.53
2023-01-30T13:41:18.776Z,13.63
2023-01-30T13:43:53.173Z,15.23
2023-01-30T13:46:27.591Z,15.57
2023-01-30T13:49:00.482Z,10.33
2023-01-30T13:51:45.381Z,7.87
2023-01-30T13:54:43.605Z,10.97
2023-01-30T13:57:24.446Z,7.90
2023-01-30T14:00:19.738Z,9.53
2023-01-30T14:03:08.602Z,7.83
2023-01-30T14:05:55.016Z,4.77
2023-01-30T14:08:25.686Z,6.73
2023-01-30T14:10:55.859Z,7.77
2023-01-30T14:13:25.397Z,11.63
2023-01-30T14:16:04.628Z,9.83
2023-01-30T14:18:36.056Z,14.33
2023-01-30T14:21:20.352Z,10.03
2023-01-30T14:24:04.993Z,9.67
2023-01-30T14:26:58.042Z,12.27
2023-01-30T14:29:43.311Z,6.67
2023-01-30T14:32:13.496Z,12.20
2023-01-30T14:34:44.396Z,10.37
2023-01-30T14:37:41.588Z,11.57
2023-01-30T14:40:23.674Z,8.43
2023-01-30T14:43:12.320Z,10.97
2023-01-30T14:46:07.470Z,8.57
2023-01-30T14:49:05.362Z,9.43
2023-01-30T14:51:48.571Z,4.37
2023-01-30T14:54:15.542Z,9.87
2023-01-30T14:57:22.064Z,5.83
2023-01-30T15:00:14.132Z,9.47
2023-01-30T15:02:49.286Z,9.77
2023-01-30T15:05:21.591Z,6.50
2023-01-30T15:08:25.536Z,14.30
2023-01-30T15:11:06.147Z,8.43
2023-01-30T15:13:50.368Z,6.23
2023-01-30T15:16:36.751Z,6.67
2023-01-30T15:19:04.389Z,9.17
2023-01-30T15:21:55.695Z,11.83
2023-01-30T15:24:42.510Z,10.77
2023-01-30T15:27:31.741Z,11.77
2023-01-30T15:30:20.380Z,9.53
2023-01-30T15:32:47.515Z,7.47
2023-01-30T15:35:20.070Z,11.37
2023-01-30T15:37:49.617Z,12.77
2023-01-30T15:40:17.004Z,11.23
2023-01-30T15:42:54.672Z,11.33
2023-01-30T15:45:59.264Z,14.37
2023-01-30T15:48:29.270Z,9.80
2023-01-30T15:51:00.609Z,7.30
2023-01-30T15:53:32.396Z,10.80
2023-01-30T15:56:02.114Z,11.50
2023-01-30T15:58:30.585Z,11.57
2023-01-30T16:01:00.845Z,10.80
2023-01-30T16:03:32.872Z,4.97
2023-01-30T16:06:00.916Z,11.47
2023-01-30T16:08:36.826Z,11.20
2023-01-30T16:11:04.385Z,9.87
2023-01-30T16:13:35.952Z,10.73
2023-01-30T16:16:13.588Z,12.83
2023-01-30T16:18:57.272Z,11.97
2023-01-30T16:21:40.860Z,12.80
2023-01-30T16:24:27.668Z,11.00
2023-01-30T16:27:00.838Z,9.17
2023-01-30T16:29:33.676Z,8.43
2023-01-30T16:32:01.122Z,17.03
2023-01-30T16:34:33.633Z,13.63
2023-01-30T16:37:26.136Z,13.00
2023-01-30T16:40:16.499Z,13.43
2023-01-30T16:42:59.179Z,14.67
2023-01-30T16:45:36.524Z,14.60
2023-01-30T16:48:24.660Z,16.50
2023-01-30T16:51:02.419Z,12.30
2023-01-30T16:53:32.763Z,21.67
2023-01-30T16:56:07.726Z,13.97
2023-01-30T16:58:37.274Z,19.03
2023-01-30T17:01:09.190Z,15.90
2023-01-30T17:03:42.429Z,16.63
2023-01-30T17:06:26.277Z,12.43
2023-01-30T17:08:56.557Z,13.57
2023-01-30T17:11:31.851Z,16.87
2023-01-30T17:14:10.904Z,14.43
2023-01-30T17:16:41.308Z,20.37
2023-01-30T17:19:08.270Z,19.57
2023-01-30T17:21:50.995Z,14.37
2023-01-30T17:24:22.040Z,20.87
2023-01-30T17:26:59.334Z,13.40
2023-01-30T17:29:41.931Z,16.37
2023-01-30T17:32:13.723Z,14.83
2023-01-30T17:34:41.479Z,15.07
2023-01-30T17:37:17.927Z,18.93
2023-01-30T17:39:45.450Z,20.50
2023-01-30T17:42:13.384Z,20.13
2023-01-30T17:44:41.177Z,15.33
2023-01-30T17:47:11.568Z,16.00
2023-01-30T17:49:38.844Z,21.03
2023-01-30T17:52:06.080Z,20.53
2023-01-30T17:54:32.930Z,24.00
2023-01-30T17:57:05.757Z,14.53
2023-01-30T17:59:33.492Z,20.67
2023-01-30T18:02:00.712Z,16.47
2023-01-30T18:04:27.653Z,18.23
2023-01-30T18:07:02.211Z,16.70
2023-01-30T18:09:30.003Z,18.63
2023-01-30T18:11:57.123Z,18.63
2023-01-30T18:14:24.001Z,20.47
2023-01-30T18:16:51.194Z,14.87
2023-01-30T18:19:18.870Z,16.70
2023-01-30T18:21:45.790Z,21.50
2023-01-30T18:24:14.849Z,13.00
2023-01-30T18:26:42.637Z,18.33
2023-01-30T18:29:10.202Z,18.37
2023-01-30T18:31:38.536Z,18.43
2023-01-30T18:34:06.997Z,25.63
2023-01-30T18:36:35.755Z,14.63
2023-01-30T18:39:03.496Z,11.43
2023-01-30T18:41:30.908Z,16.20
2023-01-30T18:44:03.483Z,17.57
2023-01-30T18:46:30.954Z,16.83
2023-01-30T18:48:58.546Z,13.53
2023-01-30T18:51:28.634Z,18.00
2023-01-30T18:53:55.873Z,16.00
2023-01-30T18:56:31.334Z,14.20
2023-01-30T18:59:02.503Z,15.80
2023-01-30T19:01:31.802Z,21.60
2023-01-30T19:04:00.945Z,17.20
2023-01-30T19:06:29.330Z,17.20
2023-01-30T19:08:59.681Z,14.73
2023-01-30T19:11:45.484Z,13.10
2023-01-30T19:14:13.436Z,11.37
2023-01-30T19:16:41.161Z,22.27
2023-01-30T19:19:09.518Z,16.30
2023-01-30T19:21:36.878Z,14.90
2023-01-30T19:24:08.699Z,15.73
2023-01-30T19:26:35.854Z,19.63
2023-01-30T19:29:02.920Z,16.77
2023-01-30T19:31:30.003Z,17.77
2023-01-30T19:34:01.220Z,17.77
2023-01-30T19:36:31.766Z,14.47
2023-01-30T19:38:59.984Z,17.83
2023-01-30T19:41:29.582Z,19.50
2023-01-30T19:43:58.380Z,12.10
2023-01-30T19:46:26.253Z,14.77
2023-01-30T19:48:53.467Z,14.23
2023-01-30T19:51:26.551Z,17.37
2023-01-30T19:54:00.597Z,23.30
2023-01-30T19:56:30.350Z,17.73
2023-01-30T19:58:59.045Z,20.13
2023-01-30T20:01:30.908Z,15.43
2023-01-30T20:03:59.005Z,16.23
2023-01-30T20:06:31.964Z,23.87
2023-01-30T20:09:01.427Z,18.07
2023-01-30T20:11:29.336Z,16.63
2023-01-30T20:13:56.814Z,20.20
2023-01-30T20:16:27.481Z,16.73
2023-01-30T20:18:59.639Z,18.03
2023-01-30T20:21:29.709Z,15.30
2023-01-30T20:23:58.263Z,26.90
2023-01-30T20:26:28.274Z,16.40
2023-01-30T20:28:56.205Z,16.30
2023-01-30T20:31:25.486Z,18.77
2023-01-30T20:33:53.222Z,21.47
2023-01-30T20:36:20.861Z,18.03
2023-01-30T20:38:49.231Z,21.83
2023-01-30T20:41:22.247Z,15.93
2023-01-30T20:43:51.537Z,21.03
2023-01-30T20:46:21.284Z,21.17
2023-01-30T20:48:49.390Z,21.00
2023-01-30T20:51:19.213Z,13.33
2023-01-30T20:53:55.175Z,18.50
2023-01-30T20:56:24.121Z,21.03
2023-01-30T20:58:51.003Z,21.47
2023-01-30T21:01:21.603Z,20.53
2023-01-30T21:03:52.758Z,21.37
2023-01-30T21:06:42.501Z,19.97
2023-01-30T21:09:20.915Z,25.33
2023-01-30T21:11:49.340Z,17.73
2023-01-30T21:14:17.611Z,18.03
2023-01-30T21:16:45.408Z,13.07
2023-01-30T21:19:16.174Z,19.80
2023-01-30T21:21:53.415Z,18.83
2023-01-30T21:24:29.432Z,18.93
2023-01-30T21:26:56.852Z,14.73
2023-01-30T21:29:25.919Z,18.23
2023-01-30T21:31:54.317Z,12.53
2023-01-30T21:34:21.794Z,18.43
2023-01-30T21:37:09.393Z,24.87
2023-01-30T21:39:56.020Z,20.40
2023-01-30T21:42:41.834Z,17.57
2023-01-30T21:45:09.044Z,23.50
2023-01-30T21:47:37.004Z,21.37
2023-01-30T21:50:04.200Z,28.13
2023-01-30T21:52:33.189Z,19.73
2023-01-30T21:55:00.113Z,22.63
2023-01-30T21:57:26.970Z,31.03
2023-01-30T21:59:54.026Z,22.47
2023-01-30T22:02:21.259Z,20.30
2023-01-30T22:04:48.348Z,25.13
2023-01-30T22:07:15.181Z,22.60
2023-01-30T22:09:42.187Z,28.63
2023-01-30T22:12:11.350Z,27.53
2023-01-30T22:14:38.750Z,18.97
2023-01-30T22:17:06.026Z,15.73
2023-01-30T22:19:35.792Z,31.93
2023-01-30T22:22:03.348Z,21.30
2023-01-30T22:24:30.455Z,28.37
2023-01-30T22:26:57.701Z,27.47
2023-01-30T22:29:25.286Z,23.77
2023-01-30T22:31:52.234Z,25.03
2023-01-30T22:34:19.300Z,22.47
2023-01-30T22:36:47.982Z,21.40
2023-01-30T22:39:14.887Z,16.20
2023-01-30T22:41:42.098Z,24.73
2023-01-30T22:44:10.092Z,24.07
2023-01-30T22:46:39.642Z,25.40
2023-01-30T22:49:08.210Z,24.83
2023-01-30T22:51:40.653Z,21.27
2023-01-30T22:54:12.155Z,23.30
2023-01-30T22:56:41.548Z,24.17
2023-01-30T22:59:09.356Z,19.83
2023-01-30T23:01:39.343Z,22.10
2023-01-30T23:04:19.667Z,19.83
2023-01-30T23:06:47.312Z,20.67
2023-01-30T23:09:17.042Z,22.13
2023-01-30T23:12:09.077Z,20.13
2023-01-30T23:14:37.269Z,15.77
2023-01-30T23:17:25.280Z,16.83
2023-01-30T23:19:52.756Z,20.37
2023-01-30T23:22:19.731Z,23.77
2023-01-30T23:24:48.588Z,25.63
2023-01-30T23:27:15.631Z,19.77
2023-01-30T23:29:42.572Z,19.07
2023-01-30T23:32:09.449Z,18.97
2023-01-30T23:34:36.558Z,17.83
2023-01-30T23:37:03.481Z,20.27
2023-01-30T23:39:30.328Z,17.63
2023-01-30T23:41:57.104Z,18.50
2023-01-30T23:44:23.922Z,19.20
2023-01-30T23:46:50.712Z,16.07
2023-01-30T23:49:17.459Z,12.63
2023-01-30T23:51:44.963Z,17.33
2023-01-30T23:54:13.733Z,12.23
2023-01-30T23:56:43.822Z,26.23
2023-01-30T23:59:12.047Z,18.77
